Tuesday, January 23, 2018, 11:52 PM GMT
Back to Local

CWQV, Puinte Claveau

Location: , , Canada Lat: 48.267
Local Time: 11:52 PM GMT (23:52 GMT) Lon: -70.117
Time Zone: GMT Elev: 0 ft

Show me the last for .
Show Coded

Time T Td Feel RH Dir Speed Gust Alt SLP Vis Weather Sky Remarks
2018-01-23 23:00 19 17 4 90 100° 17 - - - 0 Peak wind: 23 mph (20 kts) from 100° at 04 min
2018-01-23 22:00 19 16 3 90 100° 20 - - - 0 Peak wind: 24 mph (21 kts) from 90° at 25 min
2018-01-23 21:00 19 16 3 87 100° 20 - - - 0 Peak wind: 27 mph (24 kts) from 100° at 10 min
2018-01-23 20:00 19 15 2 84 90° 24 - - - 0 Peak wind: 31 mph (27 kts) from 100° at 01 min
2018-01-23 19:00 19 15 1 84 90° 25 - - - 0 Peak wind: 32 mph (28 kts) from 80° at 39 min
2018-01-23 18:00 18 15 -1 87 90° 28 - - - 0 Peak wind: 34 mph (30 kts) from 80° at 18 min
2018-01-23 17:00 18 15 -3 86 90° 25 33 - - 0 Peak wind: 36 mph (32 kts) from 70° at 39 min
2018-01-23 16:00 18 15 -3 86 80° 23 35 - - 0 Peak wind: 34 mph (30 kts) from 60° at 55 min
2018-01-23 15:00 17 12 -2 80 80° 25 - - - 0 Peak wind: 29 mph (26 kts) from 90° at 42 min
2018-01-23 14:00 14 11 -5 88 90° 25 - - - 0 Peak wind: 29 mph (26 kts) from 90° at 37 min
2018-01-23 13:00 13 11 -9 94 90° 24 30 - - 0 Peak wind: 29 mph (26 kts) from 90° at 51 min
2018-01-23 12:00 11 8 -7 86 90° 21 - - - 0 Peak wind: 26 mph (23 kts) from 90° at 55 min
2018-01-23 11:00 10 7 -7 84 90° 16 - - - 0 Peak wind: 23 mph (20 kts) from 80° at 02 min
2018-01-23 10:00 10 8 -10 91 90° 21 - - - 0 Peak wind: 27 mph (24 kts) from 90° at 33 min
2018-01-23 09:00 11 5 -7 76 80° 18 - - - 0 Peak wind: 24 mph (21 kts) from 80° at 36 min
2018-01-23 08:00 10 5 -9 79 90° 20 - - - 0 Peak wind: 24 mph (21 kts) from 110° at 50 min
2018-01-23 07:00 10 3 -5 71 80° 13 - - - 0 None
2018-01-23 06:00 10 1 -2 64 80° 8 - - - 0 None
2018-01-23 05:00 10 2 -4 70 80° 10 - - - 0 None
2018-01-23 04:00 9 2 -3 71 80° 8 - - - 0 None
2018-01-23 03:00 6 0 -1 74 100° 3 - - - 0 None
2018-01-23 02:00 4 -2 - 73 100° 2 - - - 0 None
2018-01-23 01:00 2 -5 - 71 60° 1 - - - 0 None
2018-01-23 00:00 2 -6 -9 68 280° 6 - - - 0 None

Support USWX by starting your Amazon purchase here.